sensor_id;sensor_type;location;lat;lon;timestamp;temperature;humidity
17066;DHT22;23120;52.336;21.182;2023-03-16T00:01:04;0.10;88.30
17066;DHT22;23120;52.336;21.182;2023-03-16T00:03:31;0.10;88.10
17066;DHT22;23120;52.336;21.182;2023-03-16T00:05:57;0.10;88.30
17066;DHT22;23120;52.336;21.182;2023-03-16T00:08:24;0.10;88.40
17066;DHT22;23120;52.336;21.182;2023-03-16T00:10:51;0.10;88.80
17066;DHT22;23120;52.336;21.182;2023-03-16T00:13:22;0.00;88.70
17066;DHT22;23120;52.336;21.182;2023-03-16T00:15:49;0.00;88.20
17066;DHT22;23120;52.336;21.182;2023-03-16T00:18:27;0.00;88.20
17066;DHT22;23120;52.336;21.182;2023-03-16T00:21:02;-0.10;88.40
17066;DHT22;23120;52.336;21.182;2023-03-16T00:23:31;-0.10;88.70
17066;DHT22;23120;52.336;21.182;2023-03-16T00:26:01;-0.10;88.30
17066;DHT22;23120;52.336;21.182;2023-03-16T00:28:31;-0.20;88.30
17066;DHT22;23120;52.336;21.182;2023-03-16T00:31:00;-0.30;88.70
17066;DHT22;23120;52.336;21.182;2023-03-16T00:33:27;-0.30;89.20
17066;DHT22;23120;52.336;21.182;2023-03-16T00:35:54;-0.30;88.90
17066;DHT22;23120;52.336;21.182;2023-03-16T00:38:28;-0.30;89.10
17066;DHT22;23120;52.336;21.182;2023-03-16T00:40:58;-0.40;88.80
17066;DHT22;23120;52.336;21.182;2023-03-16T00:43:25;-0.40;88.90
17066;DHT22;23120;52.336;21.182;2023-03-16T00:45:58;-0.40;89.30
17066;DHT22;23120;52.336;21.182;2023-03-16T00:48:31;-0.50;89.70
17066;DHT22;23120;52.336;21.182;2023-03-16T00:50:59;-0.50;89.80
17066;DHT22;23120;52.336;21.182;2023-03-16T00:53:27;-0.50;89.70
17066;DHT22;23120;52.336;21.182;2023-03-16T00:55:53;-0.50;89.50
17066;DHT22;23120;52.336;21.182;2023-03-16T00:58:20;-0.60;89.50
17066;DHT22;23120;52.336;21.182;2023-03-16T01:00:47;-0.60;89.30
17066;DHT22;23120;52.336;21.182;2023-03-16T01:03:17;-0.60;89.30
17066;DHT22;23120;52.336;21.182;2023-03-16T01:05:43;-0.60;89.00
17066;DHT22;23120;52.336;21.182;2023-03-16T01:08:10;-0.70;88.60
17066;DHT22;23120;52.336;21.182;2023-03-16T01:10:37;-0.70;89.00
17066;DHT22;23120;52.336;21.182;2023-03-16T01:13:05;-0.70;89.20
17066;DHT22;23120;52.336;21.182;2023-03-16T01:15:32;-0.70;89.50
17066;DHT22;23120;52.336;21.182;2023-03-16T01:18:00;-0.80;89.60
17066;DHT22;23120;52.336;21.182;2023-03-16T01:20:28;-0.80;90.00
17066;DHT22;23120;52.336;21.182;2023-03-16T01:22:55;-0.80;90.10
17066;DHT22;23120;52.336;21.182;2023-03-16T01:25:22;-0.80;90.10
17066;DHT22;23120;52.336;21.182;2023-03-16T01:27:49;-0.90;90.00
17066;DHT22;23120;52.336;21.182;2023-03-16T01:30:18;-0.90;89.70
17066;DHT22;23120;52.336;21.182;2023-03-16T01:32:45;-0.90;89.50
17066;DHT22;23120;52.336;21.182;2023-03-16T01:35:13;-1.00;89.10
17066;DHT22;23120;52.336;21.182;2023-03-16T01:37:41;-1.00;90.00
17066;DHT22;23120;52.336;21.182;2023-03-16T01:40:21;-1.00;90.00
17066;DHT22;23120;52.336;21.182;2023-03-16T01:42:58;-1.10;90.00
17066;DHT22;23120;52.336;21.182;2023-03-16T01:46:08;-1.10;90.00
17066;DHT22;23120;52.336;21.182;2023-03-16T01:48:46;-1.10;90.00
17066;DHT22;23120;52.336;21.182;2023-03-16T01:51:22;-1.10;90.00
17066;DHT22;23120;52.336;21.182;2023-03-16T01:53:53;-1.20;89.90
17066;DHT22;23120;52.336;21.182;2023-03-16T01:56:24;-1.20;89.40
17066;DHT22;23120;52.336;21.182;2023-03-16T01:58:52;-1.20;89.00
17066;DHT22;23120;52.336;21.182;2023-03-16T02:01:23;-1.20;89.40
17066;DHT22;23120;52.336;21.182;2023-03-16T02:03:55;-1.30;89.20
17066;DHT22;23120;52.336;21.182;2023-03-16T02:06:23;-1.30;89.20
17066;DHT22;23120;52.336;21.182;2023-03-16T02:08:56;-1.40;89.30
17066;DHT22;23120;52.336;21.182;2023-03-16T02:11:23;-1.40;89.80
17066;DHT22;23120;52.336;21.182;2023-03-16T02:14:07;-1.50;89.70
17066;DHT22;23120;52.336;21.182;2023-03-16T02:16:34;-1.50;90.10
17066;DHT22;23120;52.336;21.182;2023-03-16T02:19:02;-1.50;90.10
17066;DHT22;23120;52.336;21.182;2023-03-16T02:21:34;-1.50;90.10
17066;DHT22;23120;52.336;21.182;2023-03-16T02:24:05;-1.60;90.10
17066;DHT22;23120;52.336;21.182;2023-03-16T02:26:38;-1.60;90.20
17066;DHT22;23120;52.336;21.182;2023-03-16T02:29:16;-1.60;90.00
17066;DHT22;23120;52.336;21.182;2023-03-16T02:31:47;-1.60;89.60
17066;DHT22;23120;52.336;21.182;2023-03-16T02:34:16;-1.70;89.50
17066;DHT22;23120;52.336;21.182;2023-03-16T02:36:44;-1.70;89.50
17066;DHT22;23120;52.336;21.182;2023-03-16T02:39:12;-1.60;89.60
17066;DHT22;23120;52.336;21.182;2023-03-16T02:41:44;-1.70;89.50
17066;DHT22;23120;52.336;21.182;2023-03-16T02:44:14;-1.70;89.50
17066;DHT22;23120;52.336;21.182;2023-03-16T02:46:43;-1.80;89.40
17066;DHT22;23120;52.336;21.182;2023-03-16T02:49:17;-1.80;88.90
17066;DHT22;23120;52.336;21.182;2023-03-16T02:51:45;-1.80;88.90
17066;DHT22;23120;52.336;21.182;2023-03-16T02:54:13;-1.90;89.10
17066;DHT22;23120;52.336;21.182;2023-03-16T02:56:40;-1.90;89.30
17066;DHT22;23120;52.336;21.182;2023-03-16T02:59:08;-1.90;89.40
17066;DHT22;23120;52.336;21.182;2023-03-16T03:01:36;-2.00;89.20
17066;DHT22;23120;52.336;21.182;2023-03-16T03:04:04;-2.00;89.30
17066;DHT22;23120;52.336;21.182;2023-03-16T03:06:32;-2.00;89.60
17066;DHT22;23120;52.336;21.182;2023-03-16T03:09:00;-2.00;89.90
17066;DHT22;23120;52.336;21.182;2023-03-16T03:11:27;-2.10;89.40
17066;DHT22;23120;52.336;21.182;2023-03-16T03:13:55;-2.10;89.10
17066;DHT22;23120;52.336;21.182;2023-03-16T03:16:25;-2.10;89.40
17066;DHT22;23120;52.336;21.182;2023-03-16T03:18:53;-2.10;89.30
17066;DHT22;23120;52.336;21.182;2023-03-16T03:21:21;-2.20;89.30
17066;DHT22;23120;52.336;21.182;2023-03-16T03:23:50;-2.20;89.50
17066;DHT22;23120;52.336;21.182;2023-03-16T03:26:18;-2.20;89.70
17066;DHT22;23120;52.336;21.182;2023-03-16T03:28:46;-2.20;90.00
17066;DHT22;23120;52.336;21.182;2023-03-16T03:31:14;-2.30;89.90
17066;DHT22;23120;52.336;21.182;2023-03-16T03:33:42;-2.30;90.00
17066;DHT22;23120;52.336;21.182;2023-03-16T03:36:10;-2.30;90.00
17066;DHT22;23120;52.336;21.182;2023-03-16T03:38:38;-2.30;90.10
17066;DHT22;23120;52.336;21.182;2023-03-16T03:41:08;-2.30;90.10
17066;DHT22;23120;52.336;21.182;2023-03-16T03:43:37;-2.40;90.20
17066;DHT22;23120;52.336;21.182;2023-03-16T03:46:07;-2.40;90.20
17066;DHT22;23120;52.336;21.182;2023-03-16T03:48:33;-2.40;90.20
17066;DHT22;23120;52.336;21.182;2023-03-16T03:51:00;-2.40;90.20
17066;DHT22;23120;52.336;21.182;2023-03-16T03:53:41;-2.50;90.10
17066;DHT22;23120;52.336;21.182;2023-03-16T03:56:18;-2.50;90.00
17066;DHT22;23120;52.336;21.182;2023-03-16T03:58:45;-2.50;90.10
17066;DHT22;23120;52.336;21.182;2023-03-16T04:01:18;-2.50;90.20
17066;DHT22;23120;52.336;21.182;2023-03-16T04:03:45;-2.60;90.10
17066;DHT22;23120;52.336;21.182;2023-03-16T04:06:14;-2.60;90.20
17066;DHT22;23120;52.336;21.182;2023-03-16T04:08:41;-2.60;90.20
17066;DHT22;23120;52.336;21.182;2023-03-16T04:11:11;-2.60;90.10
17066;DHT22;23120;52.336;21.182;2023-03-16T04:13:39;-2.70;90.10
17066;DHT22;23120;52.336;21.182;2023-03-16T04:16:07;-2.70;90.10
17066;DHT22;23120;52.336;21.182;2023-03-16T04:18:40;-2.70;90.10
17066;DHT22;23120;52.336;21.182;2023-03-16T04:21:13;-2.70;90.10
17066;DHT22;23120;52.336;21.182;2023-03-16T04:23:43;-2.70;90.10
17066;DHT22;23120;52.336;21.182;2023-03-16T04:26:10;-2.70;90.10
17066;DHT22;23120;52.336;21.182;2023-03-16T04:28:40;-2.70;90.20
17066;DHT22;23120;52.336;21.182;2023-03-16T04:31:09;-2.80;90.30
17066;DHT22;23120;52.336;21.182;2023-03-16T04:33:41;-2.80;90.20
17066;DHT22;23120;52.336;21.182;2023-03-16T04:36:08;-2.80;90.20
17066;DHT22;23120;52.336;21.182;2023-03-16T04:38:37;-2.80;90.40
17066;DHT22;23120;52.336;21.182;2023-03-16T04:41:05;-2.80;90.40
17066;DHT22;23120;52.336;21.182;2023-03-16T04:43:36;-2.90;90.40
17066;DHT22;23120;52.336;21.182;2023-03-16T04:46:17;-2.90;90.40
17066;DHT22;23120;52.336;21.182;2023-03-16T04:48:44;-2.90;90.30
17066;DHT22;23120;52.336;21.182;2023-03-16T04:51:11;-2.90;90.40
17066;DHT22;23120;52.336;21.182;2023-03-16T04:53:44;-2.90;90.20
17066;DHT22;23120;52.336;21.182;2023-03-16T04:56:26;-2.90;90.30
17066;DHT22;23120;52.336;21.182;2023-03-16T04:58:58;-2.90;90.30
17066;DHT22;23120;52.336;21.182;2023-03-16T05:01:30;-2.90;90.30
17066;DHT22;23120;52.336;21.182;2023-03-16T05:04:00;-2.90;90.20
17066;DHT22;23120;52.336;21.182;2023-03-16T05:06:30;-2.90;90.10
17066;DHT22;23120;52.336;21.182;2023-03-16T05:08:59;-2.90;90.10
17066;DHT22;23120;52.336;21.182;2023-03-16T05:11:27;-2.90;90.20
17066;DHT22;23120;52.336;21.182;2023-03-16T05:13:57;-3.00;90.20
17066;DHT22;23120;52.336;21.182;2023-03-16T05:16:25;-3.00;90.30
17066;DHT22;23120;52.336;21.182;2023-03-16T05:18:56;-3.00;90.50
17066;DHT22;23120;52.336;21.182;2023-03-16T05:21:24;-3.00;90.50
17066;DHT22;23120;52.336;21.182;2023-03-16T05:23:57;-3.00;90.60
17066;DHT22;23120;52.336;21.182;2023-03-16T05:26:24;-3.00;90.50
17066;DHT22;23120;52.336;21.182;2023-03-16T05:28:51;-3.00;90.50
17066;DHT22;23120;52.336;21.182;2023-03-16T05:31:22;-3.00;90.50
17066;DHT22;23120;52.336;21.182;2023-03-16T05:33:54;-3.00;90.70
17066;DHT22;23120;52.336;21.182;2023-03-16T05:36:22;-3.00;91.10
17066;DHT22;23120;52.336;21.182;2023-03-16T05:38:52;-2.90;91.00
17066;DHT22;23120;52.336;21.182;2023-03-16T05:41:29;-2.90;91.20
17066;DHT22;23120;52.336;21.182;2023-03-16T05:44:00;-2.90;91.50
17066;DHT22;23120;52.336;21.182;2023-03-16T05:46:38;-2.80;91.80
17066;DHT22;23120;52.336;21.182;2023-03-16T05:49:07;-2.80;92.10
17066;DHT22;23120;52.336;21.182;2023-03-16T05:51:36;-2.80;92.10
17066;DHT22;23120;52.336;21.182;2023-03-16T05:54:05;-2.70;92.10
17066;DHT22;23120;52.336;21.182;2023-03-16T05:56:40;-2.70;92.50
17066;DHT22;23120;52.336;21.182;2023-03-16T05:59:08;-2.60;92.60
17066;DHT22;23120;52.336;21.182;2023-03-16T06:01:35;-2.50;92.80
17066;DHT22;23120;52.336;21.182;2023-03-16T06:04:03;-2.50;92.70
17066;DHT22;23120;52.336;21.182;2023-03-16T06:06:36;-2.40;92.60
17066;DHT22;23120;52.336;21.182;2023-03-16T06:09:09;-2.30;92.60
17066;DHT22;23120;52.336;21.182;2023-03-16T06:11:37;-2.30;92.80
17066;DHT22;23120;52.336;21.182;2023-03-16T06:14:03;-2.20;92.80
17066;DHT22;23120;52.336;21.182;2023-03-16T06:16:30;-2.10;92.90
17066;DHT22;23120;52.336;21.182;2023-03-16T06:18:58;-2.10;92.90
17066;DHT22;23120;52.336;21.182;2023-03-16T06:21:26;-2.00;93.20
17066;DHT22;23120;52.336;21.182;2023-03-16T06:23:56;-2.00;93.60
17066;DHT22;23120;52.336;21.182;2023-03-16T06:26:23;-1.90;93.70
17066;DHT22;23120;52.336;21.182;2023-03-16T06:28:50;-1.80;94.20
17066;DHT22;23120;52.336;21.182;2023-03-16T06:31:17;-1.70;94.80
17066;DHT22;23120;52.336;21.182;2023-03-16T06:33:45;-1.70;94.90
17066;DHT22;23120;52.336;21.182;2023-03-16T06:36:12;-1.60;94.70
17066;DHT22;23120;52.336;21.182;2023-03-16T06:38:43;-1.50;95.00
17066;DHT22;23120;52.336;21.182;2023-03-16T06:41:26;-1.40;94.70
17066;DHT22;23120;52.336;21.182;2023-03-16T06:43:53;-1.30;95.70
17066;DHT22;23120;52.336;21.182;2023-03-16T06:46:20;-1.20;96.40
17066;DHT22;23120;52.336;21.182;2023-03-16T06:48:46;-1.10;96.10
17066;DHT22;23120;52.336;21.182;2023-03-16T06:51:14;-1.00;96.50
17066;DHT22;23120;52.336;21.182;2023-03-16T06:53:41;-0.90;96.60
17066;DHT22;23120;52.336;21.182;2023-03-16T06:56:08;-0.80;96.00
17066;DHT22;23120;52.336;21.182;2023-03-16T06:58:40;-0.70;96.80
17066;DHT22;23120;52.336;21.182;2023-03-16T07:01:07;-0.60;96.40
17066;DHT22;23120;52.336;21.182;2023-03-16T07:03:34;-0.50;96.10
17066;DHT22;23120;52.336;21.182;2023-03-16T07:06:07;-0.50;95.90
17066;DHT22;23120;52.336;21.182;2023-03-16T07:08:34;-0.40;95.90
17066;DHT22;23120;52.336;21.182;2023-03-16T07:11:01;-0.20;96.30
17066;DHT22;23120;52.336;21.182;2023-03-16T07:13:29;-0.20;96.10
17066;DHT22;23120;52.336;21.182;2023-03-16T07:15:57;0.00;96.40
17066;DHT22;23120;52.336;21.182;2023-03-16T07:18:25;0.00;96.30
17066;DHT22;23120;52.336;21.182;2023-03-16T07:20:53;0.10;96.40
17066;DHT22;23120;52.336;21.182;2023-03-16T07:23:22;0.20;96.70
17066;DHT22;23120;52.336;21.182;2023-03-16T07:25:49;0.40;96.40
17066;DHT22;23120;52.336;21.182;2023-03-16T07:28:18;0.50;96.20
17066;DHT22;23120;52.336;21.182;2023-03-16T07:30:45;0.60;96.20
17066;DHT22;23120;52.336;21.182;2023-03-16T07:33:14;0.70;96.20
17066;DHT22;23120;52.336;21.182;2023-03-16T07:35:40;0.80;96.00
17066;DHT22;23120;52.336;21.182;2023-03-16T07:38:07;0.90;95.90
17066;DHT22;23120;52.336;21.182;2023-03-16T07:40:38;1.10;96.00
17066;DHT22;23120;52.336;21.182;2023-03-16T07:43:11;1.10;95.70
17066;DHT22;23120;52.336;21.182;2023-03-16T07:45:51;1.30;95.50
17066;DHT22;23120;52.336;21.182;2023-03-16T07:48:20;1.40;95.50
17066;DHT22;23120;52.336;21.182;2023-03-16T07:50:55;1.50;95.40
17066;DHT22;23120;52.336;21.182;2023-03-16T07:53:23;1.60;95.30
17066;DHT22;23120;52.336;21.182;2023-03-16T07:55:59;1.70;95.30
17066;DHT22;23120;52.336;21.182;2023-03-16T07:58:27;1.90;95.40
17066;DHT22;23120;52.336;21.182;2023-03-16T08:00:55;2.00;95.10
17066;DHT22;23120;52.336;21.182;2023-03-16T08:03:24;2.10;95.10
17066;DHT22;23120;52.336;21.182;2023-03-16T08:05:53;2.20;94.90
17066;DHT22;23120;52.336;21.182;2023-03-16T08:08:20;2.30;94.60
17066;DHT22;23120;52.336;21.182;2023-03-16T08:10:49;2.40;94.60
17066;DHT22;23120;52.336;21.182;2023-03-16T08:13:20;2.50;94.40
17066;DHT22;23120;52.336;21.182;2023-03-16T08:15:48;2.60;94.30
17066;DHT22;23120;52.336;21.182;2023-03-16T08:18:30;2.70;94.20
17066;DHT22;23120;52.336;21.182;2023-03-16T08:20:57;2.90;94.00
17066;DHT22;23120;52.336;21.182;2023-03-16T08:23:24;3.00;94.00
17066;DHT22;23120;52.336;21.182;2023-03-16T08:25:52;3.10;93.90
17066;DHT22;23120;52.336;21.182;2023-03-16T08:28:21;3.20;93.80
17066;DHT22;23120;52.336;21.182;2023-03-16T08:30:52;3.30;93.50
17066;DHT22;23120;52.336;21.182;2023-03-16T08:33:31;3.50;93.40
17066;DHT22;23120;52.336;21.182;2023-03-16T08:35:59;3.50;93.10
17066;DHT22;23120;52.336;21.182;2023-03-16T08:38:26;3.60;92.80
17066;DHT22;23120;52.336;21.182;2023-03-16T08:40:58;3.80;92.90
17066;DHT22;23120;52.336;21.182;2023-03-16T08:43:25;3.90;92.60
17066;DHT22;23120;52.336;21.182;2023-03-16T08:45:52;3.90;92.60
17066;DHT22;23120;52.336;21.182;2023-03-16T08:48:24;4.10;92.50
17066;DHT22;23120;52.336;21.182;2023-03-16T08:50:52;4.20;92.30
17066;DHT22;23120;52.336;21.182;2023-03-16T08:53:20;4.30;92.30
17066;DHT22;23120;52.336;21.182;2023-03-16T08:55:47;4.40;92.40
17066;DHT22;23120;52.336;21.182;2023-03-16T08:58:14;4.50;92.40
17066;DHT22;23120;52.336;21.182;2023-03-16T09:00:41;4.70;91.60
17066;DHT22;23120;52.336;21.182;2023-03-16T09:03:08;4.70;90.90
17066;DHT22;23120;52.336;21.182;2023-03-16T09:05:35;4.90;90.90
17066;DHT22;23120;52.336;21.182;2023-03-16T09:08:04;4.90;90.60
17066;DHT22;23120;52.336;21.182;2023-03-16T09:10:31;5.10;90.30
17066;DHT22;23120;52.336;21.182;2023-03-16T09:12:58;5.10;89.90
17066;DHT22;23120;52.336;21.182;2023-03-16T09:15:25;5.10;90.10
17066;DHT22;23120;52.336;21.182;2023-03-16T09:17:52;5.20;89.30
17066;DHT22;23120;52.336;21.182;2023-03-16T09:20:19;5.30;88.50
17066;DHT22;23120;52.336;21.182;2023-03-16T09:22:46;5.40;87.50
17066;DHT22;23120;52.336;21.182;2023-03-16T09:25:18;5.50;88.60
17066;DHT22;23120;52.336;21.182;2023-03-16T09:27:45;5.50;88.80
17066;DHT22;23120;52.336;21.182;2023-03-16T09:30:14;5.60;87.80
17066;DHT22;23120;52.336;21.182;2023-03-16T09:32:42;5.70;86.70
17066;DHT22;23120;52.336;21.182;2023-03-16T09:35:13;5.80;86.50
17066;DHT22;23120;52.336;21.182;2023-03-16T09:37:40;5.90;87.00
17066;DHT22;23120;52.336;21.182;2023-03-16T09:40:19;6.00;86.30
17066;DHT22;23120;52.336;21.182;2023-03-16T09:42:53;6.10;85.50
17066;DHT22;23120;52.336;21.182;2023-03-16T09:45:27;6.20;85.40
17066;DHT22;23120;52.336;21.182;2023-03-16T09:48:00;6.30;85.80
17066;DHT22;23120;52.336;21.182;2023-03-16T09:50:32;6.40;86.60
17066;DHT22;23120;52.336;21.182;2023-03-16T09:53:03;6.60;85.60
17066;DHT22;23120;52.336;21.182;2023-03-16T09:55:35;6.70;84.80
17066;DHT22;23120;52.336;21.182;2023-03-16T09:58:04;6.80;82.20
17066;DHT22;23120;52.336;21.182;2023-03-16T10:00:40;7.00;80.80
17066;DHT22;23120;52.336;21.182;2023-03-16T10:03:16;7.10;80.50
17066;DHT22;23120;52.336;21.182;2023-03-16T10:05:54;7.10;80.50
17066;DHT22;23120;52.336;21.182;2023-03-16T10:08:24;7.20;80.70
17066;DHT22;23120;52.336;21.182;2023-03-16T10:11:04;7.20;81.60
17066;DHT22;23120;52.336;21.182;2023-03-16T10:13:38;7.40;79.70
17066;DHT22;23120;52.336;21.182;2023-03-16T10:16:09;7.50;78.40
17066;DHT22;23120;52.336;21.182;2023-03-16T10:18:41;7.60;77.70
17066;DHT22;23120;52.336;21.182;2023-03-16T10:21:14;7.70;78.90
17066;DHT22;23120;52.336;21.182;2023-03-16T10:23:44;7.90;79.00
17066;DHT22;23120;52.336;21.182;2023-03-16T10:26:17;7.90;77.20
17066;DHT22;23120;52.336;21.182;2023-03-16T10:28:46;8.10;75.70
17066;DHT22;23120;52.336;21.182;2023-03-16T10:31:19;8.20;75.60
17066;DHT22;23120;52.336;21.182;2023-03-16T10:33:48;8.30;76.40
17066;DHT22;23120;52.336;21.182;2023-03-16T10:36:23;8.40;75.80
17066;DHT22;23120;52.336;21.182;2023-03-16T10:38:52;8.50;74.80
17066;DHT22;23120;52.336;21.182;2023-03-16T10:41:28;8.60;73.30
17066;DHT22;23120;52.336;21.182;2023-03-16T10:43:57;8.70;72.00
17066;DHT22;23120;52.336;21.182;2023-03-16T10:46:26;8.70;70.70
17066;DHT22;23120;52.336;21.182;2023-03-16T10:48:57;8.80;71.10
17066;DHT22;23120;52.336;21.182;2023-03-16T10:51:27;8.90;69.00
17066;DHT22;23120;52.336;21.182;2023-03-16T10:54:00;8.90;68.10
17066;DHT22;23120;52.336;21.182;2023-03-16T10:56:33;8.90;68.80
17066;DHT22;23120;52.336;21.182;2023-03-16T10:59:19;8.90;67.50
17066;DHT22;23120;52.336;21.182;2023-03-16T11:01:50;8.90;66.90
17066;DHT22;23120;52.336;21.182;2023-03-16T11:04:18;8.90;66.20
17066;DHT22;23120;52.336;21.182;2023-03-16T11:06:52;9.00;65.20
17066;DHT22;23120;52.336;21.182;2023-03-16T11:09:23;9.00;67.10
17066;DHT22;23120;52.336;21.182;2023-03-16T11:11:51;9.10;69.10
17066;DHT22;23120;52.336;21.182;2023-03-16T11:14:21;9.20;68.40
17066;DHT22;23120;52.336;21.182;2023-03-16T11:16:54;9.30;66.60
17066;DHT22;23120;52.336;21.182;2023-03-16T11:19:25;9.30;63.90
17066;DHT22;23120;52.336;21.182;2023-03-16T11:21:56;9.30;65.50
17066;DHT22;23120;52.336;21.182;2023-03-16T11:24:28;9.30;64.80
17066;DHT22;23120;52.336;21.182;2023-03-16T11:27:03;9.40;65.80
17066;DHT22;23120;52.336;21.182;2023-03-16T11:29:42;9.30;64.30
17066;DHT22;23120;52.336;21.182;2023-03-16T11:32:17;9.30;65.10
17066;DHT22;23120;52.336;21.182;2023-03-16T11:34:45;9.30;63.70
17066;DHT22;23120;52.336;21.182;2023-03-16T11:37:24;9.30;62.90
17066;DHT22;23120;52.336;21.182;2023-03-16T11:40:02;9.40;64.40
17066;DHT22;23120;52.336;21.182;2023-03-16T11:42:47;9.40;63.60
17066;DHT22;23120;52.336;21.182;2023-03-16T11:45:25;9.50;64.50
17066;DHT22;23120;52.336;21.182;2023-03-16T11:48:27;9.70;64.20
17066;DHT22;23120;52.336;21.182;2023-03-16T11:51:01;9.80;60.60
17066;DHT22;23120;52.336;21.182;2023-03-16T11:53:46;9.90;60.60
17066;DHT22;23120;52.336;21.182;2023-03-16T11:56:21;10.00;59.70
17066;DHT22;23120;52.336;21.182;2023-03-16T11:59:02;10.10;59.70
17066;DHT22;23120;52.336;21.182;2023-03-16T12:01:42;10.10;60.30
17066;DHT22;23120;52.336;21.182;2023-03-16T12:04:23;10.20;58.10
17066;DHT22;23120;52.336;21.182;2023-03-16T12:07:02;10.20;58.30
17066;DHT22;23120;52.336;21.182;2023-03-16T12:09:50;10.10;57.50
17066;DHT22;23120;52.336;21.182;2023-03-16T12:12:28;10.10;56.30
17066;DHT22;23120;52.336;21.182;2023-03-16T12:15:14;10.00;56.20
17066;DHT22;23120;52.336;21.182;2023-03-16T12:26:32;9.50;58.50
17066;DHT22;23120;52.336;21.182;2023-03-16T12:29:05;9.40;58.80
17066;DHT22;23120;52.336;21.182;2023-03-16T12:31:42;9.20;59.20
17066;DHT22;23120;52.336;21.182;2023-03-16T12:34:24;9.20;59.60
17066;DHT22;23120;52.336;21.182;2023-03-16T12:37:08;9.10;59.90
17066;DHT22;23120;52.336;21.182;2023-03-16T12:40:08;9.00;60.40
17066;DHT22;23120;52.336;21.182;2023-03-16T12:42:48;8.90;60.30
17066;DHT22;23120;52.336;21.182;2023-03-16T12:45:24;8.80;61.40
17066;DHT22;23120;52.336;21.182;2023-03-16T12:47:59;8.80;61.60
17066;DHT22;23120;52.336;21.182;2023-03-16T12:50:26;8.70;62.30
17066;DHT22;23120;52.336;21.182;2023-03-16T12:52:53;8.60;62.60
17066;DHT22;23120;52.336;21.182;2023-03-16T12:55:23;8.60;63.00
17066;DHT22;23120;52.336;21.182;2023-03-16T12:57:58;8.60;63.30
17066;DHT22;23120;52.336;21.182;2023-03-16T13:00:32;8.60;63.10
17066;DHT22;23120;52.336;21.182;2023-03-16T13:03:03;8.50;63.40
17066;DHT22;23120;52.336;21.182;2023-03-16T13:05:31;8.50;62.10
17066;DHT22;23120;52.336;21.182;2023-03-16T13:08:08;8.50;61.40
17066;DHT22;23120;52.336;21.182;2023-03-16T13:10:37;8.50;61.70
17066;DHT22;23120;52.336;21.182;2023-03-16T13:13:09;8.50;61.50
17066;DHT22;23120;52.336;21.182;2023-03-16T13:15:37;8.50;61.30
17066;DHT22;23120;52.336;21.182;2023-03-16T13:18:20;8.50;61.80
17066;DHT22;23120;52.336;21.182;2023-03-16T13:20:54;8.40;62.00
17066;DHT22;23120;52.336;21.182;2023-03-16T13:23:24;8.40;62.00
17066;DHT22;23120;52.336;21.182;2023-03-16T13:26:12;8.40;62.20
17066;DHT22;23120;52.336;21.182;2023-03-16T13:28:41;8.30;62.70
17066;DHT22;23120;52.336;21.182;2023-03-16T13:31:23;8.30;63.50
17066;DHT22;23120;52.336;21.182;2023-03-16T13:33:55;8.20;63.50
17066;DHT22;23120;52.336;21.182;2023-03-16T13:36:25;8.20;63.20
17066;DHT22;23120;52.336;21.182;2023-03-16T13:39:03;8.20;63.00
17066;DHT22;23120;52.336;21.182;2023-03-16T13:41:31;8.10;63.30
17066;DHT22;23120;52.336;21.182;2023-03-16T13:43:58;8.10;62.80
17066;DHT22;23120;52.336;21.182;2023-03-16T13:46:27;8.00;62.50
17066;DHT22;23120;52.336;21.182;2023-03-16T13:48:58;8.00;61.60
17066;DHT22;23120;52.336;21.182;2023-03-16T13:51:37;7.90;62.20
17066;DHT22;23120;52.336;21.182;2023-03-16T13:54:06;7.90;62.30
17066;DHT22;23120;52.336;21.182;2023-03-16T13:56:42;7.80;62.70
17066;DHT22;23120;52.336;21.182;2023-03-16T13:59:09;7.80;62.90
17066;DHT22;23120;52.336;21.182;2023-03-16T14:01:36;7.70;62.40
17066;DHT22;23120;52.336;21.182;2023-03-16T14:04:09;7.70;62.70
17066;DHT22;23120;52.336;21.182;2023-03-16T14:06:38;7.70;63.00
17066;DHT22;23120;52.336;21.182;2023-03-16T14:09:14;7.60;63.10
17066;DHT22;23120;52.336;21.182;2023-03-16T14:11:42;7.60;63.90
17066;DHT22;23120;52.336;21.182;2023-03-16T14:14:14;7.60;63.90
17066;DHT22;23120;52.336;21.182;2023-03-16T14:16:41;7.60;64.50
17066;DHT22;23120;52.336;21.182;2023-03-16T14:19:16;7.60;63.50
17066;DHT22;23120;52.336;21.182;2023-03-16T14:21:45;7.60;63.20
17066;DHT22;23120;52.336;21.182;2023-03-16T14:24:22;7.60;63.50
17066;DHT22;23120;52.336;21.182;2023-03-16T14:26:53;7.60;63.10
17066;DHT22;23120;52.336;21.182;2023-03-16T14:29:22;7.60;63.50
17066;DHT22;23120;52.336;21.182;2023-03-16T14:31:51;7.60;63.50
17066;DHT22;23120;52.336;21.182;2023-03-16T14:34:26;7.50;62.00
17066;DHT22;23120;52.336;21.182;2023-03-16T14:37:09;7.60;62.60
17066;DHT22;23120;52.336;21.182;2023-03-16T14:39:36;7.60;62.30
17066;DHT22;23120;52.336;21.182;2023-03-16T14:42:10;7.60;62.20
17066;DHT22;23120;52.336;21.182;2023-03-16T14:44:39;7.50;62.10
17066;DHT22;23120;52.336;21.182;2023-03-16T14:47:07;7.50;61.80
17066;DHT22;23120;52.336;21.182;2023-03-16T14:49:36;7.50;61.20
17066;DHT22;23120;52.336;21.182;2023-03-16T14:52:07;7.40;61.40
17066;DHT22;23120;52.336;21.182;2023-03-16T14:54:39;7.40;62.50
17066;DHT22;23120;52.336;21.182;2023-03-16T14:57:15;7.40;62.80
17066;DHT22;23120;52.336;21.182;2023-03-16T14:59:42;7.40;62.20
17066;DHT22;23120;52.336;21.182;2023-03-16T15:02:14;7.40;62.40
17066;DHT22;23120;52.336;21.182;2023-03-16T15:04:43;7.30;63.40
17066;DHT22;23120;52.336;21.182;2023-03-16T15:07:21;7.30;63.20
17066;DHT22;23120;52.336;21.182;2023-03-16T15:09:50;7.30;63.00
17066;DHT22;23120;52.336;21.182;2023-03-16T15:12:19;7.30;63.30
17066;DHT22;23120;52.336;21.182;2023-03-16T15:14:52;7.20;64.30
17066;DHT22;23120;52.336;21.182;2023-03-16T15:17:36;7.20;63.40
17066;DHT22;23120;52.336;21.182;2023-03-16T15:20:05;7.10;63.70
17066;DHT22;23120;52.336;21.182;2023-03-16T15:22:35;7.10;64.50
17066;DHT22;23120;52.336;21.182;2023-03-16T15:25:18;7.10;64.10
17066;DHT22;23120;52.336;21.182;2023-03-16T15:27:46;7.10;64.50
17066;DHT22;23120;52.336;21.182;2023-03-16T15:30:15;7.10;64.50
17066;DHT22;23120;52.336;21.182;2023-03-16T15:32:42;7.10;65.00
17066;DHT22;23120;52.336;21.182;2023-03-16T15:35:11;7.00;63.70
17066;DHT22;23120;52.336;21.182;2023-03-16T15:37:38;7.00;64.40
17066;DHT22;23120;52.336;21.182;2023-03-16T15:40:15;7.00;64.10
17066;DHT22;23120;52.336;21.182;2023-03-16T15:42:42;7.00;63.80
17066;DHT22;23120;52.336;21.182;2023-03-16T15:45:11;7.00;64.40
17066;DHT22;23120;52.336;21.182;2023-03-16T15:47:38;6.90;65.40
17066;DHT22;23120;52.336;21.182;2023-03-16T15:50:07;6.90;65.90
17066;DHT22;23120;52.336;21.182;2023-03-16T15:52:37;6.80;67.20
17066;DHT22;23120;52.336;21.182;2023-03-16T15:55:08;6.80;67.20
17066;DHT22;23120;52.336;21.182;2023-03-16T15:57:38;6.80;67.70